Huvudsida
METAR-TAF:

METAR-TAF

Flygplatser :

Juwata International Airport

Tarakan, Indonesien

latitud: 03-19-36N, longitud: 117-33-56E, höjd: 6 m

Aktuellt väderrapport

Denna rapport gjordes för 1 timme och 14 minuter sedan, klockan 00:00 UTC
Stilla vind
Temperatur 25°C
Fuktighet 94%
Tryck 1012 hPa
Sikt: 9000 m
Spridda moln på en höjd av 1500 ft
Brutna moln på en höjd av 11000 ft
lätt regn

METAR: WAQQ 190000Z 00000KT 9000 -RA SCT015 BKN110 25/24 Q1012

Tid: 08:14 (01:14 UTC)

Väderprognos

Denna rapport gjordes för 2 timmar och 14 minuter sedan, klockan 23:00 UTC
Prognos gäller från 19 kl. 00 UTC till 19 kl. 12 UTC
Vind 4 kt från väst/nordväst
Sikt: 5000 m
Få moln på en höjd av 1400 ft, Cumulonimbus.
Brutna moln på en höjd av 1500 ft
åska, regn
Blir
från 19 kl. 03 UTC till 19 kl. 06 UTC
Vind 5 kt från ost
Sikt 10 km eller mer
Spridda moln på en höjd av 1600 ft

TAF: WAQQ 182300Z 1900/1912 30004KT 5000 TSRA FEW014CB BKN015 BECMG 1903/1906 09005KT 9999 NSW SCT016

Aktuella väderrapporter och prognoser från 4000 flygplatser (METAR- och TAF-rapporter).

De tillgängliga stationerna syns som gula och röda prickar på kartan.

För musen över prickarna för att se namnen på stationerna.

Klicka sedan för att få väderrapporter och prognoser.

För att ändra kartan: Klicka på de gröna knapparna med ett svart kors på för att zooma in; den gröna knappen med ett streck på för att zooma ut; eller på de gröna pilarna för angränsande kartor.


METAR-TAF: